Time;durP1;ratioP1;P1;durP2;ratioP2;P2;SDS_P1;SDS_P2;PMS_P1;PMS_P2;Temp;Humidity;BMP_temperature;BMP_pressure;BME280_temperature;BME280_humidity;BME280_pressure;Samples;Min_cycle;Max_cycle;Signal;HPM_P1;HPM_P2
2023/04/18 00:01:39;;;;;;;40.30;21.33;;;10.80;99.90;;;;;;5049453;28;20048;-76
2023/04/18 00:04:05;;;;;;;35.97;20.80;;;10.80;99.90;;;;;;5049703;28;20033;-76
2023/04/18 00:06:31;;;;;;;39.72;20.58;;;10.80;99.90;;;;;;5051214;28;20395;-76
2023/04/18 00:08:57;;;;;;;40.70;21.55;;;10.70;99.90;;;;;;5052447;28;20035;-76
2023/04/18 00:11:23;;;;;;;37.63;20.95;;;10.70;99.90;;;;;;5059430;28;20048;-76
2023/04/18 00:13:49;;;;;;;38.08;20.92;;;10.70;99.90;;;;;;5030131;28;20048;-76
2023/04/18 00:16:15;;;;;;;34.97;20.15;;;10.80;99.90;;;;;;5031988;28;20037;-76
2023/04/18 00:18:41;;;;;;;42.15;21.58;;;10.90;99.90;;;;;;5048160;28;20044;-75
2023/04/18 00:21:08;;;;;;;41.30;22.83;;;10.80;99.90;;;;;;5051246;28;20021;-76
2023/04/18 00:23:34;;;;;;;38.05;20.48;;;10.70;99.90;;;;;;5051390;28;20103;-76
2023/04/18 00:26:01;;;;;;;37.78;20.17;;;10.60;99.90;;;;;;5051066;28;20029;-76
2023/04/18 00:28:27;;;;;;;36.75;21.80;;;10.50;99.90;;;;;;5068341;28;20032;-76
2023/04/18 00:30:53;;;;;;;41.45;22.30;;;10.50;99.90;;;;;;5049912;28;20037;-76
2023/04/18 00:33:19;;;;;;;39.85;20.63;;;10.60;99.90;;;;;;5049911;28;20036;-76
2023/04/18 00:35:45;;;;;;;34.00;17.98;;;10.50;99.90;;;;;;5050863;28;20411;-76
2023/04/18 00:38:11;;;;;;;41.20;21.95;;;10.40;99.90;;;;;;5051190;28;20029;-76
2023/04/18 00:40:37;;;;;;;36.95;20.17;;;10.40;99.90;;;;;;5049135;28;20029;-76
2023/04/18 00:43:05;;;;;;;38.53;22.08;;;10.60;99.90;;;;;;5051238;28;20037;-76
2023/04/18 00:45:31;;;;;;;39.72;21.73;;;10.60;99.90;;;;;;5049573;28;20043;-76
2023/04/18 00:47:57;;;;;;;44.55;23.20;;;10.50;99.90;;;;;;5049707;28;20036;-75
2023/04/18 00:50:24;;;;;;;39.28;21.70;;;10.40;99.90;;;;;;5048761;28;20048;-76
2023/04/18 00:52:50;;;;;;;39.63;21.83;;;10.40;99.90;;;;;;5050233;28;20041;-76
2023/04/18 00:55:17;;;;;;;45.22;21.55;;;10.30;99.90;;;;;;5050376;28;20383;-75
2023/04/18 00:57:43;;;;;;;41.30;21.98;;;10.30;99.90;;;;;;5051230;28;20025;-76
2023/04/18 01:00:10;;;;;;;40.78;22.83;;;10.30;99.90;;;;;;5050987;28;20029;-75
2023/04/18 01:02:36;;;;;;;42.83;22.48;;;10.30;99.90;;;;;;5051035;28;20021;-76
2023/04/18 01:05:03;;;;;;;43.30;23.42;;;10.40;99.90;;;;;;5048076;28;20060;-75
2023/04/18 01:07:30;;;;;;;37.55;19.38;;;10.40;99.90;;;;;;5032679;28;20412;-76
2023/04/18 01:09:56;;;;;;;43.90;22.95;;;10.40;99.90;;;;;;5050051;28;20386;-75
2023/04/18 01:12:22;;;;;;;44.92;23.15;;;10.40;99.90;;;;;;5050702;28;20032;-76
2023/04/18 01:14:48;;;;;;;39.63;22.30;;;10.40;99.90;;;;;;5051173;28;20028;-75
2023/04/18 01:17:15;;;;;;;39.78;21.45;;;10.50;99.90;;;;;;5049403;28;20520;-74
2023/04/18 01:19:41;;;;;;;43.28;23.05;;;10.50;99.90;;;;;;5051068;28;20045;-75
2023/04/18 01:22:07;;;;;;;42.83;24.05;;;10.50;99.90;;;;;;5050488;28;20044;-76
2023/04/18 01:24:34;;;;;;;39.95;23.35;;;10.40;99.90;;;;;;5049812;28;20383;-76
2023/04/18 01:27:02;;;;;;;42.78;22.65;;;10.40;99.90;;;;;;5050252;28;20032;-76
2023/04/18 01:29:28;;;;;;;45.50;22.08;;;10.40;99.90;;;;;;5048900;28;20383;-76
2023/04/18 01:31:54;;;;;;;40.97;21.83;;;10.30;99.90;;;;;;5048428;28;20044;-76
2023/04/18 01:34:20;;;;;;;36.70;22.40;;;10.30;99.90;;;;;;5049455;28;20025;-76
2023/04/18 01:36:46;;;;;;;39.63;22.70;;;10.30;99.90;;;;;;5047681;28;20036;-76
2023/04/18 01:39:12;;;;;;;38.00;22.80;;;10.30;99.90;;;;;;5051125;28;20029;-76
2023/04/18 01:41:39;;;;;;;39.17;21.15;;;10.30;99.90;;;;;;5054681;28;20048;-75
2023/04/18 01:44:05;;;;;;;41.70;23.95;;;10.30;99.90;;;;;;5054587;28;20472;-76
2023/04/18 01:46:32;;;;;;;39.85;22.30;;;10.30;99.90;;;;;;5052401;28;20029;-76
2023/04/18 01:48:58;;;;;;;39.55;23.00;;;10.30;99.90;;;;;;5054881;28;20048;-76
2023/04/18 01:51:25;;;;;;;39.17;20.35;;;10.40;99.90;;;;;;5054351;28;20044;-76
2023/04/18 01:53:51;;;;;;;39.72;23.27;;;10.40;99.90;;;;;;5053339;28;20399;-76
2023/04/18 01:56:17;;;;;;;36.78;19.27;;;10.40;99.90;;;;;;5054282;28;20036;-76
2023/04/18 01:58:43;;;;;;;45.80;23.85;;;10.30;99.90;;;;;;5052749;28;20407;-76
2023/04/18 02:01:09;;;;;;;38.80;22.58;;;10.20;99.90;;;;;;5051812;28;20396;-77
2023/04/18 02:03:35;;;;;;;42.88;21.63;;;10.30;99.90;;;;;;5049044;28;20488;-76
2023/04/18 02:06:02;;;;;;;40.08;22.20;;;10.30;99.90;;;;;;5053870;28;20029;-76
2023/04/18 02:08:29;;;;;;;43.78;24.67;;;10.30;99.90;;;;;;5050792;28;20040;-76
2023/04/18 02:10:55;;;;;;;39.58;23.10;;;10.30;99.90;;;;;;5052164;28;20029;-76
2023/04/18 02:13:21;;;;;;;40.50;23.80;;;10.40;99.90;;;;;;5051166;28;20033;-76
2023/04/18 02:15:48;;;;;;;42.17;23.63;;;10.30;99.90;;;;;;5051000;28;20040;-76
2023/04/18 02:18:14;;;;;;;43.33;23.67;;;10.40;99.90;;;;;;5049972;28;20032;-76
2023/04/18 02:20:40;;;;;;;46.83;26.15;;;10.30;99.90;;;;;;5051749;28;20025;-76
2023/04/18 02:23:07;;;;;;;45.80;25.20;;;10.40;99.90;;;;;;5050928;28;20037;-76
2023/04/18 02:25:33;;;;;;;43.65;24.15;;;10.30;99.90;;;;;;5052341;28;20021;-76
2023/04/18 02:27:59;;;;;;;42.95;24.30;;;10.40;99.90;;;;;;5050688;28;20041;-76
2023/04/18 02:30:25;;;;;;;46.67;24.52;;;10.30;99.90;;;;;;5050669;28;20029;-76
2023/04/18 02:32:52;;;;;;;46.25;25.63;;;10.40;99.90;;;;;;5050110;28;20053;-76
2023/04/18 02:35:19;;;;;;;46.95;25.83;;;10.40;99.90;;;;;;5050896;28;20033;-76
2023/04/18 02:37:45;;;;;;;45.95;26.60;;;10.30;99.90;;;;;;5034840;28;20383;-75
2023/04/18 02:40:11;;;;;;;49.45;25.83;;;10.20;99.90;;;;;;5067087;28;20029;-76
2023/04/18 02:42:38;;;;;;;46.13;25.73;;;10.20;99.90;;;;;;5057496;28;20040;-76
2023/04/18 02:45:05;;;;;;;50.22;26.13;;;10.20;99.90;;;;;;5053199;28;20033;-75
2023/04/18 02:47:31;;;;;;;47.95;25.50;;;10.10;99.90;;;;;;5051475;28;20033;-76
2023/04/18 02:49:57;;;;;;;46.90;26.27;;;10.10;99.90;;;;;;5052122;28;20439;-75
2023/04/18 02:52:24;;;;;;;48.75;25.60;;;10.00;99.90;;;;;;5051405;28;20055;-76
2023/04/18 02:54:50;;;;;;;48.30;26.40;;;10.10;99.90;;;;;;5053338;28;20036;-75
2023/04/18 02:57:16;;;;;;;47.25;25.60;;;10.10;99.90;;;;;;5051583;28;20049;-76
2023/04/18 02:59:42;;;;;;;46.40;25.17;;;10.20;99.90;;;;;;5052549;28;20032;-76
2023/04/18 03:02:08;;;;;;;49.20;26.80;;;10.20;99.90;;;;;;5049809;28;20037;-76
2023/04/18 03:04:34;;;;;;;54.30;28.23;;;10.20;99.90;;;;;;5051377;28;20044;-75
2023/04/18 03:07:00;;;;;;;52.65;27.77;;;10.20;99.90;;;;;;5051165;28;20082;-76
2023/04/18 03:09:27;;;;;;;45.30;26.83;;;10.20;99.90;;;;;;5043600;28;20041;-76
2023/04/18 03:11:53;;;;;;;50.88;27.90;;;10.30;99.90;;;;;;5042811;28;20048;-76
2023/04/18 03:14:19;;;;;;;51.95;29.13;;;10.20;99.90;;;;;;5051641;28;20033;-76
2023/04/18 03:16:45;;;;;;;53.00;27.88;;;10.20;99.90;;;;;;5052234;28;20036;-76
2023/04/18 03:19:11;;;;;;;51.42;28.50;;;10.10;99.90;;;;;;5051734;28;20033;-76
2023/04/18 03:21:37;;;;;;;49.20;28.27;;;10.10;99.90;;;;;;5053010;28;20029;-76
2023/04/18 03:24:03;;;;;;;49.70;27.42;;;10.20;99.90;;;;;;5052262;28;20036;-76
2023/04/18 03:26:29;;;;;;;47.95;27.85;;;10.10;99.90;;;;;;5063538;28;20398;-76
2023/04/18 03:28:55;;;;;;;48.17;25.30;;;10.10;99.90;;;;;;5071722;28;20032;-75
2023/04/18 03:31:22;;;;;;;50.20;27.70;;;10.10;99.90;;;;;;5066662;28;20412;-76
2023/04/18 03:33:50;;;;;;;55.03;29.05;;;10.10;99.90;;;;;;5051736;28;20100;-75
2023/04/18 03:36:17;;;;;;;51.42;28.85;;;10.00;99.90;;;;;;5052800;28;20024;-76
2023/04/18 03:38:43;;;;;;;55.55;28.85;;;10.00;99.90;;;;;;5050247;28;20025;-76
2023/04/18 03:41:09;;;;;;;54.40;28.83;;;10.00;99.90;;;;;;5050747;28;20033;-76
2023/04/18 03:43:35;;;;;;;56.58;30.05;;;10.20;99.90;;;;;;5050618;28;20033;-76
2023/04/18 03:46:01;;;;;;;52.45;30.25;;;10.20;99.90;;;;;;5051803;28;20075;-76
2023/04/18 03:48:34;;;;;;;51.70;29.20;;;10.10;99.90;;;;;;5051588;28;20037;-76
2023/04/18 03:51:00;;;;;;;51.65;29.10;;;10.00;99.90;;;;;;5051037;28;20375;-76
2023/04/18 03:53:26;;;;;;;53.60;28.67;;;10.00;99.90;;;;;;5051855;28;20037;-76
2023/04/18 03:55:52;;;;;;;54.58;30.83;;;10.00;99.90;;;;;;5049972;28;20478;-76
2023/04/18 03:58:22;;;;;;;51.78;29.83;;;10.00;99.90;;;;;;5050874;28;20041;-76
2023/04/18 04:00:49;;;;;;;54.72;29.58;;;10.00;99.90;;;;;;5050016;28;20064;-75
2023/04/18 04:03:16;;;;;;;53.40;29.95;;;9.90;99.90;;;;;;5049836;28;20555;-75
2023/04/18 04:05:42;;;;;;;56.28;30.85;;;9.80;99.90;;;;;;5034055;28;20432;-76
2023/04/18 04:08:08;;;;;;;55.22;31.55;;;9.80;99.90;;;;;;5045374;28;20028;-76
2023/04/18 04:10:34;;;;;;;56.45;31.75;;;9.80;99.90;;;;;;5052508;28;20471;-76
2023/04/18 04:13:00;;;;;;;57.97;32.97;;;9.90;99.90;;;;;;5049698;28;20089;-76
2023/04/18 04:15:26;;;;;;;60.33;31.95;;;9.90;99.90;;;;;;5049903;28;20044;-76
2023/04/18 04:17:53;;;;;;;53.53;32.00;;;9.90;99.90;;;;;;5050502;28;20025;-75
2023/04/18 04:20:23;;;;;;;54.72;31.85;;;9.90;99.90;;;;;;5051621;28;20040;-76
2023/04/18 04:22:51;;;;;;;55.53;30.90;;;9.90;99.90;;;;;;5050041;28;20460;-75
2023/04/18 04:25:18;;;;;;;60.95;33.78;;;9.90;99.90;;;;;;5050151;28;20032;-76
2023/04/18 04:27:44;;;;;;;54.42;29.75;;;9.90;99.90;;;;;;5078140;28;20479;-76
2023/04/18 04:30:10;;;;;;;58.47;32.80;;;10.00;99.90;;;;;;5050919;28;20032;-76
2023/04/18 04:32:37;;;;;;;59.65;33.70;;;9.90;99.90;;;;;;5047698;28;20033;-75
2023/04/18 04:35:04;;;;;;;60.90;35.88;;;9.90;99.90;;;;;;5050046;28;20379;-76
2023/04/18 04:37:32;;;;;;;62.92;34.10;;;9.90;99.90;;;;;;5049127;28;20025;-76
2023/04/18 04:39:59;;;;;;;64.40;36.47;;;9.90;99.90;;;;;;5049830;28;20395;-75
2023/04/18 04:42:25;;;;;;;66.18;36.70;;;9.80;99.90;;;;;;5067921;28;20498;-76
2023/04/18 04:44:55;;;;;;;64.63;35.67;;;9.90;99.90;;;;;;5055551;28;20040;-76
2023/04/18 04:47:21;;;;;;;59.67;34.58;;;10.00;99.90;;;;;;5044308;28;20033;-76
2023/04/18 04:49:47;;;;;;;55.78;30.70;;;10.00;99.90;;;;;;5047806;28;20029;-75
2023/04/18 04:52:13;;;;;;;67.13;35.95;;;10.00;99.90;;;;;;5016228;28;20045;-75
2023/04/18 04:54:39;;;;;;;61.65;35.35;;;10.00;99.90;;;;;;5049154;28;20036;-76
2023/04/18 04:57:05;;;;;;;62.67;35.08;;;10.00;99.90;;;;;;5048813;28;20033;-76
2023/04/18 04:59:31;;;;;;;60.95;32.78;;;10.00;99.90;;;;;;5049677;28;20044;-76
2023/04/18 05:01:57;;;;;;;69.13;37.65;;;9.90;99.90;;;;;;5050241;28;20025;-76
2023/04/18 05:04:24;;;;;;;62.28;36.58;;;10.00;99.90;;;;;;5037152;28;20029;-76
2023/04/18 05:06:50;;;;;;;66.63;35.60;;;9.90;99.90;;;;;;5045435;28;20021;-76
2023/04/18 05:09:16;;;;;;;64.35;37.38;;;10.00;99.90;;;;;;5050576;28;20029;-76
2023/04/18 05:11:42;;;;;;;60.35;34.78;;;10.00;99.90;;;;;;5051674;28;20032;-76
2023/04/18 05:14:08;;;;;;;66.38;37.83;;;10.00;99.90;;;;;;5054423;28;20028;-76
2023/04/18 05:16:35;;;;;;;55.05;30.50;;;10.00;99.90;;;;;;5054297;28;20029;-76
2023/04/18 05:19:01;;;;;;;65.15;38.13;;;9.90;99.90;;;;;;5049978;28;20041;-76
2023/04/18 05:21:28;;;;;;;58.88;32.20;;;10.00;99.90;;;;;;5046924;28;20021;-75
2023/04/18 05:23:55;;;;;;;67.60;36.30;;;10.00;99.90;;;;;;5054596;28;20328;-76
2023/04/18 05:26:21;;;;;;;63.28;37.65;;;10.00;99.90;;;;;;5052633;28;20032;-76
2023/04/18 05:28:47;;;;;;;67.25;38.20;;;10.00;99.90;;;;;;5053995;28;20380;-76
2023/04/18 05:31:13;;;;;;;68.15;38.47;;;10.00;99.90;;;;;;5053770;28;20033;-76
2023/04/18 05:33:39;;;;;;;67.00;39.65;;;10.00;99.90;;;;;;5055366;28;20502;-76
2023/04/18 05:36:06;;;;;;;64.78;37.72;;;10.00;99.90;;;;;;5053757;28;20024;-76
2023/04/18 05:38:32;;;;;;;69.65;38.40;;;10.00;99.90;;;;;;5035111;28;20099;-76
2023/04/18 05:40:59;;;;;;;66.10;40.33;;;10.00;99.90;;;;;;5051651;28;20040;-76
2023/04/18 05:43:25;;;;;;;65.55;35.45;;;10.10;99.90;;;;;;5054928;28;20029;-76
2023/04/18 05:45:51;;;;;;;60.72;31.88;;;10.10;99.90;;;;;;5054723;28;20036;-76
2023/04/18 05:48:18;;;;;;;67.28;38.70;;;10.00;99.90;;;;;;5070392;28;20037;-76
2023/04/18 05:50:44;;;;;;;69.28;39.75;;;10.00;99.90;;;;;;5068123;28;20033;-76
2023/04/18 05:53:10;;;;;;;64.57;36.05;;;10.10;99.90;;;;;;5054862;28;20053;-76
2023/04/18 05:55:39;;;;;;;70.70;39.17;;;10.20;99.90;;;;;;5053482;28;20041;-76
2023/04/18 05:58:06;;;;;;;72.00;41.05;;;10.20;99.90;;;;;;5053876;28;20411;-76
2023/04/18 06:00:33;;;;;;;72.45;39.72;;;10.30;99.90;;;;;;5054513;28;20036;-75
2023/04/18 06:02:59;;;;;;;67.43;40.55;;;10.30;99.90;;;;;;5053641;28;20029;-77
2023/04/18 06:05:25;;;;;;;68.82;36.03;;;10.30;99.90;;;;;;5052579;28;20380;-76
2023/04/18 06:07:51;;;;;;;71.07;37.80;;;10.20;99.90;;;;;;5054702;28;20036;-76
2023/04/18 06:10:17;;;;;;;69.40;40.40;;;10.30;99.90;;;;;;5052393;28;20395;-76
2023/04/18 06:12:43;;;;;;;69.68;40.45;;;10.30;99.90;;;;;;5053851;28;20037;-76
2023/04/18 06:15:10;;;;;;;70.45;38.38;;;10.30;99.90;;;;;;5051810;28;20048;-75
2023/04/18 06:17:36;;;;;;;64.55;37.47;;;10.30;99.90;;;;;;5053493;28;20037;-76
2023/04/18 06:20:05;;;;;;;72.00;42.95;;;10.30;99.90;;;;;;5052291;28;20032;-76
2023/04/18 06:22:32;;;;;;;69.00;40.85;;;10.30;99.90;;;;;;5054244;28;20041;-76
2023/04/18 06:24:59;;;;;;;72.40;41.50;;;10.40;99.90;;;;;;5052025;28;20041;-76
2023/04/18 06:27:26;;;;;;;71.00;42.38;;;10.50;99.90;;;;;;5054377;28;20510;-76
2023/04/18 06:29:52;;;;;;;66.78;37.10;;;10.50;99.90;;;;;;5054215;28;20025;-76
2023/04/18 06:32:18;;;;;;;71.88;38.78;;;10.50;99.90;;;;;;5053334;28;20071;-75
2023/04/18 06:34:44;;;;;;;63.55;36.55;;;10.50;99.90;;;;;;5052312;28;20037;-76
2023/04/18 06:37:10;;;;;;;66.85;37.67;;;10.50;99.90;;;;;;5053191;28;20037;-76
2023/04/18 06:39:37;;;;;;;62.97;36.95;;;10.50;99.90;;;;;;5051198;28;20045;-76
2023/04/18 06:42:03;;;;;;;64.22;36.22;;;10.50;99.90;;;;;;5053652;28;20502;-76
2023/04/18 06:44:31;;;;;;;56.95;30.77;;;10.50;99.90;;;;;;5044697;28;20041;-76
2023/04/18 06:46:57;;;;;;;68.70;38.50;;;10.50;99.90;;;;;;5051355;28;20124;-76
2023/04/18 06:49:23;;;;;;;64.88;36.70;;;10.50;99.90;;;;;;5052325;28;20029;-76
2023/04/18 06:51:49;;;;;;;74.68;40.50;;;10.60;99.90;;;;;;5052060;28;20049;-76
2023/04/18 06:54:15;;;;;;;29.15;15.27;;;10.60;99.90;;;;;;5052084;28;20048;-76
2023/04/18 06:56:41;;;;;;;67.78;40.13;;;10.70;99.90;;;;;;5052253;28;20021;-76
2023/04/18 06:59:08;;;;;;;62.53;34.97;;;10.70;99.90;;;;;;5053962;28;20029;-76
2023/04/18 07:01:37;;;;;;;64.72;39.47;;;10.80;99.90;;;;;;5053346;28;20036;-76
2023/04/18 07:04:04;;;;;;;66.28;40.17;;;10.80;99.90;;;;;;5052099;28;20475;-76
2023/04/18 07:06:30;;;;;;;66.10;36.38;;;10.90;99.90;;;;;;5051241;28;20037;-76
2023/04/18 07:09:00;;;;;;;63.70;37.55;;;11.10;99.90;;;;;;5052783;28;20033;-76
2023/04/18 07:11:26;;;;;;;62.17;37.45;;;11.10;99.90;;;;;;5053024;28;20480;-76
2023/04/18 07:13:53;;;;;;;63.22;38.20;;;11.10;99.90;;;;;;5052013;28;20040;-76
2023/04/18 07:16:19;;;;;;;51.65;29.33;;;11.20;99.90;;;;;;5051905;28;20036;-76
2023/04/18 07:18:45;;;;;;;57.55;34.30;;;11.20;99.90;;;;;;5051244;28;20487;-77
2023/04/18 07:21:11;;;;;;;55.85;35.08;;;11.30;99.90;;;;;;5053652;28;20025;-76
2023/04/18 07:23:37;;;;;;;66.28;36.60;;;11.30;99.90;;;;;;5052720;28;20037;-76
2023/04/18 07:26:04;;;;;;;56.80;33.67;;;11.50;99.90;;;;;;5032179;28;20045;-76
2023/04/18 07:28:30;;;;;;;43.83;25.02;;;11.60;99.90;;;;;;5034556;28;20041;-76
2023/04/18 07:30:57;;;;;;;59.83;36.60;;;11.60;99.90;;;;;;5047768;28;20033;-72
2023/04/18 07:33:23;;;;;;;54.65;31.95;;;11.70;99.90;;;;;;5050644;28;20041;-73
2023/04/18 07:35:50;;;;;;;47.28;25.70;;;11.80;99.90;;;;;;5050710;28;20515;-73
2023/04/18 07:38:16;;;;;;;54.45;34.47;;;12.00;99.90;;;;;;5050863;28;20029;-73
2023/04/18 07:40:44;;;;;;;29.38;16.92;;;12.20;99.90;;;;;;5051932;28;20490;-72
2023/04/18 07:43:10;;;;;;;60.03;33.42;;;12.30;99.90;;;;;;5051641;28;20040;-73
2023/04/18 07:45:37;;;;;;;54.78;33.60;;;12.50;99.90;;;;;;5050452;28;20479;-73
2023/04/18 07:48:04;;;;;;;50.05;31.05;;;12.70;99.90;;;;;;5050054;28;20029;-73
2023/04/18 07:50:30;;;;;;;49.17;28.65;;;12.80;99.90;;;;;;5042304;28;20475;-73
2023/04/18 07:52:56;;;;;;;46.65;29.52;;;13.00;99.90;;;;;;5050167;28;20049;-73
2023/04/18 07:55:22;;;;;;;46.75;31.83;;;13.20;99.90;;;;;;5040568;28;20041;-73
2023/04/18 07:57:49;;;;;;;42.83;25.38;;;13.30;99.90;;;;;;5047633;28;20044;-73
2023/04/18 08:00:18;;;;;;;38.50;24.92;;;13.40;99.90;;;;;;5050607;28;20499;-72
2023/04/18 08:02:44;;;;;;;45.22;30.50;;;13.50;99.90;;;;;;5032721;28;20040;-73
2023/04/18 08:05:10;;;;;;;50.35;29.73;;;13.60;99.90;;;;;;5052416;28;20044;-73
2023/04/18 08:07:37;;;;;;;45.13;30.45;;;13.80;99.90;;;;;;5049313;28;20499;-73
2023/04/18 08:10:03;;;;;;;43.05;27.42;;;13.90;99.90;;;;;;5030621;28;20040;-73
2023/04/18 08:12:29;;;;;;;43.05;31.40;;;13.90;99.90;;;;;;5044785;28;20036;-73
2023/04/18 08:14:55;;;;;;;45.90;28.10;;;14.00;99.90;;;;;;5043720;28;20029;-73
2023/04/18 08:17:22;;;;;;;48.20;30.58;;;14.20;99.90;;;;;;5015624;28;20041;-73
2023/04/18 08:19:48;;;;;;;46.08;30.25;;;14.30;99.90;;;;;;5029431;28;20480;-73
2023/04/18 08:22:14;;;;;;;45.28;28.77;;;14.20;99.90;;;;;;5014703;28;20040;-73
2023/04/18 08:24:40;;;;;;;34.72;22.15;;;14.20;99.90;;;;;;5029988;28;20407;-73
2023/04/18 08:27:06;;;;;;;35.85;21.55;;;14.20;99.90;;;;;;5030278;28;20029;-73
2023/04/18 08:29:32;;;;;;;41.13;27.67;;;14.20;99.90;;;;;;5028641;28;20029;-72
2023/04/18 08:31:58;;;;;;;31.80;21.02;;;14.30;99.90;;;;;;5031925;28;20037;-73
2023/04/18 08:34:25;;;;;;;24.67;16.52;;;14.30;99.90;;;;;;5031139;28;20419;-73
2023/04/18 08:36:51;;;;;;;38.33;26.92;;;14.30;99.90;;;;;;5030959;28;20502;-72
2023/04/18 08:39:17;;;;;;;41.95;26.98;;;14.20;99.90;;;;;;5030191;28;20025;-73
2023/04/18 08:41:43;;;;;;;41.15;27.05;;;14.30;99.90;;;;;;5032232;28;20490;-71
2023/04/18 08:44:09;;;;;;;39.13;25.83;;;14.50;99.90;;;;;;5028943;28;20052;-73
2023/04/18 08:46:36;;;;;;;45.20;28.98;;;14.60;99.90;;;;;;5027168;28;20499;-73
2023/04/18 08:49:05;;;;;;;39.45;27.48;;;14.60;99.90;;;;;;5030318;28;20038;-73
2023/04/18 08:51:34;;;;;;;37.45;24.25;;;14.90;99.90;;;;;;5032037;28;20499;-73
2023/04/18 08:54:03;;;;;;;41.22;22.58;;;14.80;99.90;;;;;;5013814;28;20041;-73
2023/04/18 08:56:32;;;;;;;33.75;23.58;;;14.80;99.90;;;;;;5022740;28;20052;-73
2023/04/18 08:58:59;;;;;;;35.67;26.88;;;14.90;99.90;;;;;;5022574;28;20038;-73
2023/04/18 09:01:57;;;;;;;36.33;23.65;;;15.10;99.90;;;;;;5026648;28;20041;-73
2023/04/18 09:04:43;;;;;;;39.60;28.17;;;15.10;99.90;;;;;;5011408;28;20034;-73
2023/04/18 09:07:11;;;;;;;35.28;25.13;;;15.30;99.90;;;;;;5029433;28;20034;-73
2023/04/18 09:09:50;;;;;;;40.15;27.33;;;15.60;99.90;;;;;;5012785;28;20040;-73
2023/04/18 09:12:21;;;;;;;37.60;27.80;;;15.70;99.90;;;;;;5030428;28;20377;-73
2023/04/18 09:14:49;;;;;;;38.05;26.92;;;15.80;99.90;;;;;;5013580;28;20034;-73
2023/04/18 09:17:36;;;;;;;37.03;25.15;;;16.00;99.90;;;;;;5013950;28;20535;-73
2023/04/18 09:20:04;;;;;;;41.25;28.27;;;16.20;99.90;;;;;;5028722;28;20029;-73
2023/04/18 09:22:50;;;;;;;33.63;23.30;;;16.10;99.90;;;;;;5010029;28;20037;-73
2023/04/18 09:25:38;;;;;;;35.20;25.85;;;16.10;99.90;;;;;;5030157;28;20371;-73
2023/04/18 09:28:05;;;;;;;35.40;25.45;;;16.00;99.90;;;;;;5028818;28;20030;-73
2023/04/18 09:30:40;;;;;;;33.45;25.15;;;16.10;99.90;;;;;;5028685;28;20373;-73
2023/04/18 09:33:08;;;;;;;34.53;26.20;;;16.30;99.90;;;;;;5030454;28;20508;-73
2023/04/18 09:35:35;;;;;;;37.40;26.80;;;16.30;99.90;;;;;;5029680;28;20028;-73
2023/04/18 09:38:02;;;;;;;28.63;20.90;;;16.50;99.90;;;;;;5029583;28;20468;-73
2023/04/18 09:40:28;;;;;;;17.73;13.05;;;16.30;99.90;;;;;;5030274;28;20029;-73
2023/04/18 09:42:54;;;;;;;36.70;25.58;;;16.20;99.90;;;;;;5030135;28;20029;-73
2023/04/18 09:45:21;;;;;;;33.03;25.20;;;16.30;99.90;;;;;;5021045;28;20044;-76
2023/04/18 09:47:47;;;;;;;31.10;22.35;;;16.50;99.90;;;;;;5010673;28;20384;-78
2023/04/18 09:50:16;;;;;;;29.02;21.55;;;16.60;99.90;;;;;;5029801;28;20483;-73
2023/04/18 09:52:44;;;;;;;29.15;23.70;;;16.60;99.90;;;;;;5029131;28;20534;-73
2023/04/18 09:55:13;;;;;;;21.08;15.48;;;16.60;99.90;;;;;;5012513;28;20468;-73
2023/04/18 09:57:41;;;;;;;28.77;19.95;;;16.50;99.90;;;;;;5028556;28;20332;-74
2023/04/18 10:00:22;;;;;;;28.55;19.92;;;16.40;99.90;;;;;;5031530;28;20029;-72
2023/04/18 10:02:57;;;;;;;31.38;22.98;;;16.60;99.90;;;;;;5034321;28;20033;-73
2023/04/18 10:05:31;;;;;;;26.30;18.50;;;16.70;99.90;;;;;;5034243;28;20045;-74
2023/04/18 10:07:58;;;;;;;31.35;24.52;;;16.70;99.90;;;;;;5031605;28;20041;-73
2023/04/18 10:10:24;;;;;;;33.67;26.33;;;16.80;99.90;;;;;;5032224;28;20029;-73
2023/04/18 10:12:52;;;;;;;34.30;25.60;;;16.90;99.90;;;;;;5034098;28;20033;-73
2023/04/18 10:15:20;;;;;;;30.17;22.48;;;17.00;99.90;;;;;;5033071;28;20048;-73
2023/04/18 10:17:59;;;;;;;27.98;23.58;;;17.10;99.90;;;;;;4992600;28;20030;-73
2023/04/18 10:20:27;;;;;;;34.10;23.13;;;17.10;99.90;;;;;;5031485;28;20033;-73
2023/04/18 10:22:54;;;;;;;26.67;19.63;;;17.20;99.90;;;;;;5033340;28;20026;-73
2023/04/18 10:25:38;;;;;;;25.77;17.35;;;17.20;99.90;;;;;;5030003;28;20025;-73
2023/04/18 10:28:05;;;;;;;31.17;21.20;;;16.90;99.90;;;;;;5029339;28;20029;-73
2023/04/18 10:30:40;;;;;;;25.85;20.70;;;16.60;99.90;;;;;;5032287;28;20511;-73
2023/04/18 10:33:39;;;;;;;25.08;19.92;;;16.90;99.90;;;;;;5034169;28;20383;-73
2023/04/18 10:36:13;;;;;;;24.13;19.80;;;17.10;99.90;;;;;;5031466;28;20037;-73
2023/04/18 10:38:45;;;;;;;24.52;20.13;;;17.30;99.90;;;;;;5032562;28;20351;-73
2023/04/18 10:41:28;;;;;;;26.20;20.40;;;17.40;99.90;;;;;;5032758;28;20028;-73
2023/04/18 10:44:17;;;;;;;27.67;20.85;;;17.40;99.90;;;;;;5032972;28;20022;-73
2023/04/18 10:46:52;;;;;;;21.33;17.50;;;17.10;99.90;;;;;;5033724;28;20025;-73
2023/04/18 10:49:19;;;;;;;22.38;19.27;;;17.10;99.90;;;;;;5033306;28;20032;-73
2023/04/18 10:51:46;;;;;;;24.70;18.48;;;17.20;99.90;;;;;;5015568;28;20052;-73
2023/04/18 10:54:16;;;;;;;21.33;14.80;;;17.30;99.90;;;;;;5029893;28;20049;-73
2023/04/18 10:56:56;;;;;;;22.73;16.63;;;17.20;99.90;;;;;;5030207;28;20025;-73
2023/04/18 10:59:22;;;;;;;23.33;17.02;;;17.30;99.90;;;;;;5013032;28;20037;-73
2023/04/18 11:01:49;;;;;;;19.30;14.95;;;17.30;99.90;;;;;;5012476;28;20041;-73
2023/04/18 11:04:15;;;;;;;18.10;14.05;;;17.50;99.90;;;;;;5012561;28;20045;-73
2023/04/18 11:06:56;;;;;;;13.63;11.35;;;17.50;99.90;;;;;;5023318;28;20033;-74
2023/04/18 11:09:22;;;;;;;16.52;14.55;;;17.60;99.90;;;;;;5032374;28;20069;-73
2023/04/18 11:12:08;;;;;;;19.80;13.93;;;17.70;99.90;;;;;;5032394;28;20033;-73
2023/04/18 11:14:47;;;;;;;18.63;15.75;;;17.90;99.90;;;;;;5031653;28;20034;-73
2023/04/18 11:17:17;;;;;;;20.02;14.57;;;17.70;99.90;;;;;;5015986;28;20029;-73
2023/04/18 11:19:43;;;;;;;15.27;11.18;;;17.70;99.90;;;;;;5033434;28;20025;-73
2023/04/18 11:22:10;;;;;;;15.85;13.68;;;17.70;99.90;;;;;;5033626;28;20029;-73
2023/04/18 11:24:36;;;;;;;12.85;11.55;;;17.80;99.90;;;;;;5014397;28;20041;-72
2023/04/18 11:27:07;;;;;;;13.93;12.57;;;18.10;99.10;;;;;;5033480;28;20033;-73
2023/04/18 11:29:34;;;;;;;12.95;11.52;;;17.80;98.90;;;;;;5014846;28;20056;-73
2023/04/18 11:32:00;;;;;;;17.33;14.90;;;17.90;99.90;;;;;;5015280;28;20045;-73
2023/04/18 11:34:29;;;;;;;10.88;9.88;;;17.90;99.90;;;;;;5033372;28;20042;-73
2023/04/18 11:36:55;;;;;;;16.40;13.18;;;17.90;99.90;;;;;;5032028;28;20523;-72
2023/04/18 11:39:22;;;;;;;12.80;11.60;;;18.00;99.90;;;;;;5032179;28;20388;-73
2023/04/18 11:41:51;;;;;;;15.00;12.55;;;17.80;98.80;;;;;;5014958;28;20025;-74
2023/04/18 11:44:21;;;;;;;11.10;10.00;;;17.60;99.90;;;;;;5006535;28;20057;-74
2023/04/18 11:46:49;;;;;;;11.90;10.73;;;17.40;99.40;;;;;;5016393;28;20037;-74
2023/04/18 11:49:28;;;;;;;12.25;10.90;;;17.40;99.00;;;;;;5032910;28;20384;-73
2023/04/18 11:51:54;;;;;;;17.25;13.45;;;17.60;97.80;;;;;;5024754;28;20045;-74
2023/04/18 11:54:42;;;;;;;17.55;12.73;;;17.70;99.00;;;;;;5026487;28;20048;-73
2023/04/18 11:57:28;;;;;;;15.90;14.18;;;17.90;98.50;;;;;;5031798;28;20028;-73
2023/04/18 11:59:55;;;;;;;10.65;9.75;;;18.10;97.30;;;;;;5031221;28;20033;-73
2023/04/18 12:02:40;;;;;;;14.23;12.82;;;18.30;96.70;;;;;;5031069;28;20033;-73
2023/04/18 12:05:06;;;;;;;14.45;12.55;;;18.20;97.60;;;;;;5031445;28;20032;-73
2023/04/18 12:07:38;;;;;;;16.58;14.70;;;18.20;97.20;;;;;;5036989;28;20387;-73
2023/04/18 12:10:05;;;;;;;16.77;14.20;;;18.10;97.00;;;;;;5030753;28;20530;-73
2023/04/18 12:12:31;;;;;;;15.27;12.05;;;18.10;97.30;;;;;;5030770;28;20085;-73
2023/04/18 12:15:09;;;;;;;14.50;13.02;;;18.20;96.80;;;;;;5031324;28;20041;-73
2023/04/18 12:17:36;;;;;;;22.30;14.82;;;18.20;96.10;;;;;;5009477;28;20034;-73
2023/04/18 12:20:03;;;;;;;16.52;14.85;;;18.00;96.90;;;;;;4999337;28;20029;-73
2023/04/18 12:22:43;;;;;;;13.05;11.35;;;18.10;97.10;;;;;;5009926;28;20038;-73
2023/04/18 12:25:18;;;;;;;17.40;14.15;;;18.00;98.90;;;;;;4979680;28;20042;-73
2023/04/18 12:27:48;;;;;;;17.33;15.35;;;17.90;99.20;;;;;;5029233;28;20025;-73
2023/04/18 12:30:14;;;;;;;15.75;13.57;;;18.20;99.40;;;;;;5031799;28;20028;-73
2023/04/18 12:32:43;;;;;;;15.02;13.65;;;18.40;98.40;;;;;;5032374;28;20036;-73